Terminal Aerodrome Forecast
Issued by NWS Sterling, VA

Current Version | Previous Version | Text Only | Print | Product List | Glossary Off
Versions: 1 2 3 4 5 6 7 8 9 10 11 12 13 14 15 16 17 18 19 20 21 22 23 24 25

000
FTUS41 KLWX 231439 AAA
TAFIAD
TAF AMD
KIAD 231439Z 2315/2418 34005KT P6SM VCSH BKN050 BKN120
     FM231800 35006KT P6SM -SHRA OVC050
     FM240300 VRB03KT P6SM SCT070 BKN150
     FM241000 31004KT P6SM SCT050=

USA.gov is the U.S. government's official web portal to all federal, state and local government web resources and services.